sensor_id;sensor_type;location;lat;lon;timestamp;P1;durP1;ratioP1;P2;durP2;ratioP2
7843;SDS011;3967;48.702;9.326;2023-02-28T00:00:35;2.47;;;1.70;;
7843;SDS011;3967;48.702;9.326;2023-02-28T00:03:03;2.90;;;1.83;;
7843;SDS011;3967;48.702;9.326;2023-02-28T00:05:30;1.97;;;1.77;;
7843;SDS011;3967;48.702;9.326;2023-02-28T00:07:57;3.03;;;1.70;;
7843;SDS011;3967;48.702;9.326;2023-02-28T00:10:25;3.23;;;1.80;;
7843;SDS011;3967;48.702;9.326;2023-02-28T00:12:54;3.07;;;2.33;;
7843;SDS011;3967;48.702;9.326;2023-02-28T00:15:25;4.13;;;1.60;;
7843;SDS011;3967;48.702;9.326;2023-02-28T00:17:52;3.33;;;1.80;;
7843;SDS011;3967;48.702;9.326;2023-02-28T00:20:19;3.70;;;1.73;;
7843;SDS011;3967;48.702;9.326;2023-02-28T00:22:48;2.80;;;1.80;;
7843;SDS011;3967;48.702;9.326;2023-02-28T00:25:17;3.27;;;1.37;;
7843;SDS011;3967;48.702;9.326;2023-02-28T00:27:45;2.77;;;1.97;;
7843;SDS011;3967;48.702;9.326;2023-02-28T00:30:13;5.00;;;2.70;;
7843;SDS011;3967;48.702;9.326;2023-02-28T00:32:42;4.10;;;2.03;;
7843;SDS011;3967;48.702;9.326;2023-02-28T00:35:09;2.00;;;1.80;;
7843;SDS011;3967;48.702;9.326;2023-02-28T00:37:36;1.90;;;1.63;;
7843;SDS011;3967;48.702;9.326;2023-02-28T00:40:03;2.53;;;2.10;;
7843;SDS011;3967;48.702;9.326;2023-02-28T00:42:32;3.33;;;1.93;;
7843;SDS011;3967;48.702;9.326;2023-02-28T00:45:00;2.10;;;1.83;;
7843;SDS011;3967;48.702;9.326;2023-02-28T00:47:27;5.43;;;1.50;;
7843;SDS011;3967;48.702;9.326;2023-02-28T00:49:54;3.17;;;1.97;;
7843;SDS011;3967;48.702;9.326;2023-02-28T00:52:21;3.50;;;1.87;;
7843;SDS011;3967;48.702;9.326;2023-02-28T00:54:47;1.73;;;1.60;;
7843;SDS011;3967;48.702;9.326;2023-02-28T00:57:14;3.17;;;1.80;;
7843;SDS011;3967;48.702;9.326;2023-02-28T00:59:41;2.17;;;1.80;;
7843;SDS011;3967;48.702;9.326;2023-02-28T01:02:07;2.73;;;1.77;;
7843;SDS011;3967;48.702;9.326;2023-02-28T01:04:34;2.47;;;2.03;;
7843;SDS011;3967;48.702;9.326;2023-02-28T01:07:01;2.77;;;2.03;;
7843;SDS011;3967;48.702;9.326;2023-02-28T01:09:28;4.37;;;2.20;;
7843;SDS011;3967;48.702;9.326;2023-02-28T01:11:54;3.10;;;2.07;;
7843;SDS011;3967;48.702;9.326;2023-02-28T01:14:21;2.33;;;1.77;;
7843;SDS011;3967;48.702;9.326;2023-02-28T01:16:48;2.67;;;2.20;;
7843;SDS011;3967;48.702;9.326;2023-02-28T01:19:15;4.07;;;2.27;;
7843;SDS011;3967;48.702;9.326;2023-02-28T01:21:42;5.10;;;2.00;;
7843;SDS011;3967;48.702;9.326;2023-02-28T01:24:09;2.87;;;2.13;;
7843;SDS011;3967;48.702;9.326;2023-02-28T01:26:35;2.83;;;2.20;;
7843;SDS011;3967;48.702;9.326;2023-02-28T01:29:02;3.87;;;2.40;;
7843;SDS011;3967;48.702;9.326;2023-02-28T01:31:29;3.87;;;2.17;;
7843;SDS011;3967;48.702;9.326;2023-02-28T01:33:56;2.23;;;2.03;;
7843;SDS011;3967;48.702;9.326;2023-02-28T01:36:23;2.20;;;2.00;;
7843;SDS011;3967;48.702;9.326;2023-02-28T01:38:51;2.97;;;1.97;;
7843;SDS011;3967;48.702;9.326;2023-02-28T01:41:19;2.97;;;2.07;;
7843;SDS011;3967;48.702;9.326;2023-02-28T01:46:15;3.17;;;2.43;;
7843;SDS011;3967;48.702;9.326;2023-02-28T01:48:46;3.33;;;2.27;;
7843;SDS011;3967;48.702;9.326;2023-02-28T01:51:23;3.30;;;2.30;;
7843;SDS011;3967;48.702;9.326;2023-02-28T01:54:05;3.50;;;2.50;;
7843;SDS011;3967;48.702;9.326;2023-02-28T01:56:41;3.27;;;2.47;;
7843;SDS011;3967;48.702;9.326;2023-02-28T01:59:20;2.13;;;1.90;;
7843;SDS011;3967;48.702;9.326;2023-02-28T02:01:57;3.10;;;2.13;;
7843;SDS011;3967;48.702;9.326;2023-02-28T02:04:26;4.30;;;2.47;;
7843;SDS011;3967;48.702;9.326;2023-02-28T02:07:03;3.20;;;2.27;;
7843;SDS011;3967;48.702;9.326;2023-02-28T02:09:30;3.73;;;2.30;;
7843;SDS011;3967;48.702;9.326;2023-02-28T02:11:57;4.03;;;2.63;;
7843;SDS011;3967;48.702;9.326;2023-02-28T02:14:38;2.53;;;2.20;;
7843;SDS011;3967;48.702;9.326;2023-02-28T02:29:03;3.60;;;2.13;;
7843;SDS011;3967;48.702;9.326;2023-02-28T02:31:46;3.80;;;2.40;;
7843;SDS011;3967;48.702;9.326;2023-02-28T02:39:22;3.03;;;2.73;;
7843;SDS011;3967;48.702;9.326;2023-02-28T02:41:59;2.77;;;2.33;;
7843;SDS011;3967;48.702;9.326;2023-02-28T02:44:31;3.50;;;2.40;;
7843;SDS011;3967;48.702;9.326;2023-02-28T02:47:08;3.00;;;2.53;;
7843;SDS011;3967;48.702;9.326;2023-02-28T02:49:42;3.77;;;2.97;;
7843;SDS011;3967;48.702;9.326;2023-02-28T02:52:15;3.17;;;2.50;;
7843;SDS011;3967;48.702;9.326;2023-02-28T02:54:47;3.63;;;2.70;;
7843;SDS011;3967;48.702;9.326;2023-02-28T02:57:18;4.03;;;2.33;;
7843;SDS011;3967;48.702;9.326;2023-02-28T02:59:49;3.13;;;2.60;;
7843;SDS011;3967;48.702;9.326;2023-02-28T03:02:17;5.63;;;2.70;;
7843;SDS011;3967;48.702;9.326;2023-02-28T03:04:46;4.77;;;2.47;;
7843;SDS011;3967;48.702;9.326;2023-02-28T03:07:18;3.60;;;2.97;;
7843;SDS011;3967;48.702;9.326;2023-02-28T03:09:51;4.93;;;2.47;;
7843;SDS011;3967;48.702;9.326;2023-02-28T03:12:19;4.33;;;2.70;;
7843;SDS011;3967;48.702;9.326;2023-02-28T03:15:00;3.07;;;2.60;;
7843;SDS011;3967;48.702;9.326;2023-02-28T03:17:54;3.80;;;2.47;;
7843;SDS011;3967;48.702;9.326;2023-02-28T03:20:51;3.77;;;2.37;;
7843;SDS011;3967;48.702;9.326;2023-02-28T03:23:19;4.60;;;2.80;;
7843;SDS011;3967;48.702;9.326;2023-02-28T03:26:07;5.07;;;2.53;;
7843;SDS011;3967;48.702;9.326;2023-02-28T03:28:48;4.17;;;2.60;;
7843;SDS011;3967;48.702;9.326;2023-02-28T03:31:39;4.10;;;2.87;;
7843;SDS011;3967;48.702;9.326;2023-02-28T03:34:17;4.83;;;3.33;;
7843;SDS011;3967;48.702;9.326;2023-02-28T03:36:51;5.17;;;3.27;;
7843;SDS011;3967;48.702;9.326;2023-02-28T03:39:34;4.97;;;3.00;;
7843;SDS011;3967;48.702;9.326;2023-02-28T03:42:07;5.37;;;3.23;;
7843;SDS011;3967;48.702;9.326;2023-02-28T03:45:11;9.13;;;3.10;;
7843;SDS011;3967;48.702;9.326;2023-02-28T03:50:23;4.57;;;2.77;;
7843;SDS011;3967;48.702;9.326;2023-02-28T03:52:55;3.30;;;2.83;;
7843;SDS011;3967;48.702;9.326;2023-02-28T03:55:32;5.33;;;3.30;;
7843;SDS011;3967;48.702;9.326;2023-02-28T03:58:07;4.23;;;2.83;;
7843;SDS011;3967;48.702;9.326;2023-02-28T04:00:52;3.47;;;3.17;;
7843;SDS011;3967;48.702;9.326;2023-02-28T04:03:25;5.50;;;3.70;;
7843;SDS011;3967;48.702;9.326;2023-02-28T04:05:53;4.50;;;3.27;;
7843;SDS011;3967;48.702;9.326;2023-02-28T04:08:21;3.70;;;3.03;;
7843;SDS011;3967;48.702;9.326;2023-02-28T04:10:51;5.97;;;3.47;;
7843;SDS011;3967;48.702;9.326;2023-02-28T04:13:23;3.70;;;3.30;;
7843;SDS011;3967;48.702;9.326;2023-02-28T04:15:50;4.03;;;3.23;;
7843;SDS011;3967;48.702;9.326;2023-02-28T04:18:17;5.57;;;3.50;;
7843;SDS011;3967;48.702;9.326;2023-02-28T04:20:43;4.37;;;3.60;;
7843;SDS011;3967;48.702;9.326;2023-02-28T04:23:10;3.47;;;3.17;;
7843;SDS011;3967;48.702;9.326;2023-02-28T04:25:37;3.70;;;3.40;;
7843;SDS011;3967;48.702;9.326;2023-02-28T04:28:06;5.40;;;3.63;;
7843;SDS011;3967;48.702;9.326;2023-02-28T04:30:33;3.53;;;3.23;;
7843;SDS011;3967;48.702;9.326;2023-02-28T04:32:59;4.67;;;3.40;;
7843;SDS011;3967;48.702;9.326;2023-02-28T04:35:26;4.20;;;3.37;;
7843;SDS011;3967;48.702;9.326;2023-02-28T04:37:53;5.10;;;3.60;;
7843;SDS011;3967;48.702;9.326;2023-02-28T04:40:20;4.30;;;3.63;;
7843;SDS011;3967;48.702;9.326;2023-02-28T04:42:47;8.13;;;3.90;;
7843;SDS011;3967;48.702;9.326;2023-02-28T04:45:13;4.37;;;3.90;;
7843;SDS011;3967;48.702;9.326;2023-02-28T04:47:40;4.80;;;3.63;;
7843;SDS011;3967;48.702;9.326;2023-02-28T04:50:07;5.57;;;3.70;;
7843;SDS011;3967;48.702;9.326;2023-02-28T04:52:34;5.23;;;3.43;;
7843;SDS011;3967;48.702;9.326;2023-02-28T04:55:01;5.50;;;4.00;;
7843;SDS011;3967;48.702;9.326;2023-02-28T04:57:28;5.63;;;4.30;;
7843;SDS011;3967;48.702;9.326;2023-02-28T04:59:56;5.33;;;4.13;;
7843;SDS011;3967;48.702;9.326;2023-02-28T05:02:22;5.27;;;3.90;;
7843;SDS011;3967;48.702;9.326;2023-02-28T05:04:49;6.80;;;4.47;;
7843;SDS011;3967;48.702;9.326;2023-02-28T05:07:16;5.40;;;4.27;;
7843;SDS011;3967;48.702;9.326;2023-02-28T05:09:43;4.27;;;3.50;;
7843;SDS011;3967;48.702;9.326;2023-02-28T05:12:09;5.63;;;4.13;;
7843;SDS011;3967;48.702;9.326;2023-02-28T05:14:36;4.20;;;3.80;;
7843;SDS011;3967;48.702;9.326;2023-02-28T05:17:03;5.60;;;3.97;;
7843;SDS011;3967;48.702;9.326;2023-02-28T05:19:30;4.83;;;4.00;;
7843;SDS011;3967;48.702;9.326;2023-02-28T05:21:56;7.00;;;4.17;;
7843;SDS011;3967;48.702;9.326;2023-02-28T05:24:24;4.37;;;3.97;;
7843;SDS011;3967;48.702;9.326;2023-02-28T05:26:52;5.63;;;3.80;;
7843;SDS011;3967;48.702;9.326;2023-02-28T05:29:20;8.33;;;4.93;;
7843;SDS011;3967;48.702;9.326;2023-02-28T05:31:47;7.73;;;3.97;;
7843;SDS011;3967;48.702;9.326;2023-02-28T05:34:14;5.47;;;4.50;;
7843;SDS011;3967;48.702;9.326;2023-02-28T05:36:42;8.40;;;4.37;;
7843;SDS011;3967;48.702;9.326;2023-02-28T05:39:09;5.30;;;4.37;;
7843;SDS011;3967;48.702;9.326;2023-02-28T05:41:40;5.83;;;4.47;;
7843;SDS011;3967;48.702;9.326;2023-02-28T05:46:37;5.10;;;4.50;;
7843;SDS011;3967;48.702;9.326;2023-02-28T05:49:04;5.03;;;4.07;;
7843;SDS011;3967;48.702;9.326;2023-02-28T05:51:31;6.00;;;4.80;;
7843;SDS011;3967;48.702;9.326;2023-02-28T05:53:58;6.73;;;5.07;;
7843;SDS011;3967;48.702;9.326;2023-02-28T05:56:26;6.30;;;4.33;;
7843;SDS011;3967;48.702;9.326;2023-02-28T05:58:53;5.80;;;4.30;;
7843;SDS011;3967;48.702;9.326;2023-02-28T06:03:59;6.43;;;4.70;;
7843;SDS011;3967;48.702;9.326;2023-02-28T06:06:28;7.73;;;4.70;;
7843;SDS011;3967;48.702;9.326;2023-02-28T06:08:56;8.33;;;5.03;;
7843;SDS011;3967;48.702;9.326;2023-02-28T06:11:23;6.67;;;4.93;;
7843;SDS011;3967;48.702;9.326;2023-02-28T06:13:54;7.37;;;5.13;;
7843;SDS011;3967;48.702;9.326;2023-02-28T06:16:26;8.63;;;5.50;;
7843;SDS011;3967;48.702;9.326;2023-02-28T06:18:54;7.13;;;5.67;;
7843;SDS011;3967;48.702;9.326;2023-02-28T06:21:23;6.77;;;4.87;;
7843;SDS011;3967;48.702;9.326;2023-02-28T06:23:50;6.77;;;5.33;;
7843;SDS011;3967;48.702;9.326;2023-02-28T06:26:17;6.30;;;5.10;;
7843;SDS011;3967;48.702;9.326;2023-02-28T06:28:45;6.80;;;5.07;;
7843;SDS011;3967;48.702;9.326;2023-02-28T06:31:13;8.73;;;5.10;;
7843;SDS011;3967;48.702;9.326;2023-02-28T06:33:41;6.00;;;4.60;;
7843;SDS011;3967;48.702;9.326;2023-02-28T06:36:09;6.00;;;4.77;;
7843;SDS011;3967;48.702;9.326;2023-02-28T06:38:37;6.60;;;5.23;;
7843;SDS011;3967;48.702;9.326;2023-02-28T06:41:05;9.80;;;5.77;;
7843;SDS011;3967;48.702;9.326;2023-02-28T06:43:41;7.33;;;5.13;;
7843;SDS011;3967;48.702;9.326;2023-02-28T06:46:09;6.33;;;4.97;;
7843;SDS011;3967;48.702;9.326;2023-02-28T06:48:39;6.97;;;5.53;;
7843;SDS011;3967;48.702;9.326;2023-02-28T06:51:11;9.27;;;5.77;;
7843;SDS011;3967;48.702;9.326;2023-02-28T06:53:40;10.73;;;7.77;;
7843;SDS011;3967;48.702;9.326;2023-02-28T06:56:08;8.03;;;5.93;;
7843;SDS011;3967;48.702;9.326;2023-02-28T06:58:36;7.50;;;5.40;;
7843;SDS011;3967;48.702;9.326;2023-02-28T07:01:05;7.40;;;5.70;;
7843;SDS011;3967;48.702;9.326;2023-02-28T07:03:34;7.30;;;6.00;;
7843;SDS011;3967;48.702;9.326;2023-02-28T07:06:01;6.90;;;5.37;;
7843;SDS011;3967;48.702;9.326;2023-02-28T07:08:28;6.90;;;5.73;;
7843;SDS011;3967;48.702;9.326;2023-02-28T07:10:55;8.23;;;6.03;;
7843;SDS011;3967;48.702;9.326;2023-02-28T07:13:22;7.73;;;6.20;;
7843;SDS011;3967;48.702;9.326;2023-02-28T07:15:57;6.57;;;5.60;;
7843;SDS011;3967;48.702;9.326;2023-02-28T07:18:31;7.63;;;5.97;;
7843;SDS011;3967;48.702;9.326;2023-02-28T07:20:58;9.53;;;6.20;;
7843;SDS011;3967;48.702;9.326;2023-02-28T07:23:24;9.10;;;5.90;;
7843;SDS011;3967;48.702;9.326;2023-02-28T07:25:51;7.97;;;6.13;;
7843;SDS011;3967;48.702;9.326;2023-02-28T07:28:18;8.53;;;6.20;;
7843;SDS011;3967;48.702;9.326;2023-02-28T07:30:44;7.17;;;5.83;;
7843;SDS011;3967;48.702;9.326;2023-02-28T07:33:11;8.63;;;6.40;;
7843;SDS011;3967;48.702;9.326;2023-02-28T07:35:38;9.60;;;6.33;;
7843;SDS011;3967;48.702;9.326;2023-02-28T07:38:04;6.47;;;5.60;;
7843;SDS011;3967;48.702;9.326;2023-02-28T07:40:33;6.77;;;5.90;;
7843;SDS011;3967;48.702;9.326;2023-02-28T07:43:01;8.47;;;6.23;;
7843;SDS011;3967;48.702;9.326;2023-02-28T07:45:28;9.77;;;6.30;;
7843;SDS011;3967;48.702;9.326;2023-02-28T07:47:57;8.97;;;6.50;;
7843;SDS011;3967;48.702;9.326;2023-02-28T07:50:24;8.50;;;6.63;;
7843;SDS011;3967;48.702;9.326;2023-02-28T07:52:52;9.67;;;6.83;;
7843;SDS011;3967;48.702;9.326;2023-02-28T07:55:19;10.00;;;7.70;;
7843;SDS011;3967;48.702;9.326;2023-02-28T07:57:45;8.00;;;6.87;;
7843;SDS011;3967;48.702;9.326;2023-02-28T08:00:12;10.67;;;7.40;;
7843;SDS011;3967;48.702;9.326;2023-02-28T08:02:39;6.87;;;5.87;;
7843;SDS011;3967;48.702;9.326;2023-02-28T08:05:06;8.83;;;6.50;;
7843;SDS011;3967;48.702;9.326;2023-02-28T08:07:33;8.30;;;6.90;;
7843;SDS011;3967;48.702;9.326;2023-02-28T08:10:00;13.43;;;7.63;;
7843;SDS011;3967;48.702;9.326;2023-02-28T08:12:27;9.87;;;7.50;;
7843;SDS011;3967;48.702;9.326;2023-02-28T08:14:54;10.40;;;7.00;;
7843;SDS011;3967;48.702;9.326;2023-02-28T08:17:20;11.50;;;8.07;;
7843;SDS011;3967;48.702;9.326;2023-02-28T08:19:47;8.70;;;6.30;;
7843;SDS011;3967;48.702;9.326;2023-02-28T08:22:14;10.77;;;8.17;;
7843;SDS011;3967;48.702;9.326;2023-02-28T08:24:41;9.23;;;6.50;;
7843;SDS011;3967;48.702;9.326;2023-02-28T08:27:08;8.77;;;7.10;;
7843;SDS011;3967;48.702;9.326;2023-02-28T08:29:38;9.80;;;6.80;;
7843;SDS011;3967;48.702;9.326;2023-02-28T08:32:06;9.23;;;6.63;;
7843;SDS011;3967;48.702;9.326;2023-02-28T08:34:45;7.97;;;7.10;;
7843;SDS011;3967;48.702;9.326;2023-02-28T08:37:13;10.33;;;6.50;;
7843;SDS011;3967;48.702;9.326;2023-02-28T08:39:40;10.50;;;6.40;;
7843;SDS011;3967;48.702;9.326;2023-02-28T08:42:06;8.40;;;6.53;;
7843;SDS011;3967;48.702;9.326;2023-02-28T08:44:33;8.60;;;6.60;;
7843;SDS011;3967;48.702;9.326;2023-02-28T08:47:00;10.23;;;6.70;;
7843;SDS011;3967;48.702;9.326;2023-02-28T08:49:27;9.20;;;7.27;;
7843;SDS011;3967;48.702;9.326;2023-02-28T08:51:54;9.20;;;6.37;;
7843;SDS011;3967;48.702;9.326;2023-02-28T08:54:23;11.93;;;7.70;;
7843;SDS011;3967;48.702;9.326;2023-02-28T08:56:50;11.53;;;7.27;;
7843;SDS011;3967;48.702;9.326;2023-02-28T08:59:17;10.10;;;6.67;;
7843;SDS011;3967;48.702;9.326;2023-02-28T09:01:44;8.70;;;5.93;;
7843;SDS011;3967;48.702;9.326;2023-02-28T09:04:11;7.67;;;6.40;;
7843;SDS011;3967;48.702;9.326;2023-02-28T09:06:42;9.83;;;6.77;;
7843;SDS011;3967;48.702;9.326;2023-02-28T09:09:10;9.30;;;6.00;;
7843;SDS011;3967;48.702;9.326;2023-02-28T09:11:37;10.23;;;7.37;;
7843;SDS011;3967;48.702;9.326;2023-02-28T09:14:04;7.97;;;6.43;;
7843;SDS011;3967;48.702;9.326;2023-02-28T09:16:31;10.63;;;6.27;;
7843;SDS011;3967;48.702;9.326;2023-02-28T09:18:59;9.37;;;6.93;;
7843;SDS011;3967;48.702;9.326;2023-02-28T09:21:26;7.50;;;6.00;;
7843;SDS011;3967;48.702;9.326;2023-02-28T09:23:54;8.13;;;6.50;;
7843;SDS011;3967;48.702;9.326;2023-02-28T09:26:25;11.63;;;7.53;;
7843;SDS011;3967;48.702;9.326;2023-02-28T09:29:04;7.70;;;6.17;;
7843;SDS011;3967;48.702;9.326;2023-02-28T09:31:30;9.17;;;7.53;;
7843;SDS011;3967;48.702;9.326;2023-02-28T09:33:58;9.60;;;7.23;;
7843;SDS011;3967;48.702;9.326;2023-02-28T09:36:25;8.83;;;6.53;;
7843;SDS011;3967;48.702;9.326;2023-02-28T09:39:09;9.33;;;6.60;;
7843;SDS011;3967;48.702;9.326;2023-02-28T09:41:37;9.70;;;7.50;;
7843;SDS011;3967;48.702;9.326;2023-02-28T09:44:15;9.77;;;6.67;;
7843;SDS011;3967;48.702;9.326;2023-02-28T09:46:48;9.10;;;7.27;;
7843;SDS011;3967;48.702;9.326;2023-02-28T09:49:21;11.30;;;7.37;;
7843;SDS011;3967;48.702;9.326;2023-02-28T09:54:26;9.90;;;7.10;;
7843;SDS011;3967;48.702;9.326;2023-02-28T09:56:57;9.30;;;6.83;;
7843;SDS011;3967;48.702;9.326;2023-02-28T10:04:45;9.50;;;6.80;;
7843;SDS011;3967;48.702;9.326;2023-02-28T10:10:02;9.73;;;7.30;;
7843;SDS011;3967;48.702;9.326;2023-02-28T10:12:40;10.23;;;7.40;;
7843;SDS011;3967;48.702;9.326;2023-02-28T10:15:13;6.70;;;6.00;;
7843;SDS011;3967;48.702;9.326;2023-02-28T10:17:42;8.77;;;7.17;;
7843;SDS011;3967;48.702;9.326;2023-02-28T10:20:21;8.23;;;6.30;;
7843;SDS011;3967;48.702;9.326;2023-02-28T10:23:01;10.33;;;7.43;;
7843;SDS011;3967;48.702;9.326;2023-02-28T10:25:35;9.50;;;6.80;;
7843;SDS011;3967;48.702;9.326;2023-02-28T10:28:14;8.43;;;6.80;;
7843;SDS011;3967;48.702;9.326;2023-02-28T10:30:43;9.27;;;6.60;;
7843;SDS011;3967;48.702;9.326;2023-02-28T10:35:50;10.40;;;6.63;;
7843;SDS011;3967;48.702;9.326;2023-02-28T10:38:20;8.13;;;6.93;;
7843;SDS011;3967;48.702;9.326;2023-02-28T10:40:49;10.30;;;7.13;;
7843;SDS011;3967;48.702;9.326;2023-02-28T10:46:05;15.40;;;8.53;;
7843;SDS011;3967;48.702;9.326;2023-02-28T10:51:12;11.47;;;7.83;;
7843;SDS011;3967;48.702;9.326;2023-02-28T10:56:26;9.97;;;6.83;;
7843;SDS011;3967;48.702;9.326;2023-02-28T10:58:54;11.87;;;7.20;;
7843;SDS011;3967;48.702;9.326;2023-02-28T11:03:58;10.73;;;6.87;;
7843;SDS011;3967;48.702;9.326;2023-02-28T11:06:26;10.50;;;7.40;;
7843;SDS011;3967;48.702;9.326;2023-02-28T11:09:04;10.10;;;7.27;;
7843;SDS011;3967;48.702;9.326;2023-02-28T11:11:44;9.30;;;6.97;;
7843;SDS011;3967;48.702;9.326;2023-02-28T11:14:20;10.90;;;7.60;;
7843;SDS011;3967;48.702;9.326;2023-02-28T11:16:50;10.57;;;7.47;;
7843;SDS011;3967;48.702;9.326;2023-02-28T11:19:19;9.60;;;7.43;;
7843;SDS011;3967;48.702;9.326;2023-02-28T11:21:54;8.40;;;7.43;;
7843;SDS011;3967;48.702;9.326;2023-02-28T11:26:56;8.67;;;7.63;;
7843;SDS011;3967;48.702;9.326;2023-02-28T11:32:02;11.17;;;7.77;;
7843;SDS011;3967;48.702;9.326;2023-02-28T11:34:36;9.33;;;6.47;;
7843;SDS011;3967;48.702;9.326;2023-02-28T11:37:03;9.87;;;7.53;;
7843;SDS011;3967;48.702;9.326;2023-02-28T11:39:35;10.37;;;7.43;;
7843;SDS011;3967;48.702;9.326;2023-02-28T11:47:53;7.50;;;6.60;;
7843;SDS011;3967;48.702;9.326;2023-02-28T11:53:22;10.43;;;6.80;;
7843;SDS011;3967;48.702;9.326;2023-02-28T12:08:31;9.77;;;7.30;;
7843;SDS011;3967;48.702;9.326;2023-02-28T12:13:40;10.33;;;7.63;;
7843;SDS011;3967;48.702;9.326;2023-02-28T12:27:15;9.07;;;7.13;;
7843;SDS011;3967;48.702;9.326;2023-02-28T12:32:30;10.33;;;7.27;;
7843;SDS011;3967;48.702;9.326;2023-02-28T12:40:16;10.70;;;7.33;;
7843;SDS011;3967;48.702;9.326;2023-02-28T12:43:05;9.47;;;7.27;;
7843;SDS011;3967;48.702;9.326;2023-02-28T12:48:06;10.63;;;7.37;;
7843;SDS011;3967;48.702;9.326;2023-02-28T12:50:36;9.93;;;7.50;;
7843;SDS011;3967;48.702;9.326;2023-02-28T12:55:49;8.17;;;7.23;;
7843;SDS011;3967;48.702;9.326;2023-02-28T12:58:36;9.13;;;7.37;;
7843;SDS011;3967;48.702;9.326;2023-02-28T13:06:30;9.50;;;6.73;;
7843;SDS011;3967;48.702;9.326;2023-02-28T13:09:18;10.87;;;7.13;;
7843;SDS011;3967;48.702;9.326;2023-02-28T13:11:46;9.43;;;7.50;;
7843;SDS011;3967;48.702;9.326;2023-02-28T13:19:33;9.97;;;7.40;;
7843;SDS011;3967;48.702;9.326;2023-02-28T13:28:00;10.13;;;6.97;;
7843;SDS011;3967;48.702;9.326;2023-02-28T13:38:47;9.07;;;7.53;;
7843;SDS011;3967;48.702;9.326;2023-02-28T13:51:50;9.30;;;7.40;;
7843;SDS011;3967;48.702;9.326;2023-02-28T13:57:23;8.43;;;6.77;;
7843;SDS011;3967;48.702;9.326;2023-02-28T14:06:13;8.33;;;7.07;;
7843;SDS011;3967;48.702;9.326;2023-02-28T14:08:46;10.13;;;6.70;;
7843;SDS011;3967;48.702;9.326;2023-02-28T14:11:24;9.60;;;7.80;;
7843;SDS011;3967;48.702;9.326;2023-02-28T14:14:03;7.83;;;6.77;;
7843;SDS011;3967;48.702;9.326;2023-02-28T14:16:43;10.77;;;6.53;;
7843;SDS011;3967;48.702;9.326;2023-02-28T14:21:39;7.97;;;6.83;;
7843;SDS011;3967;48.702;9.326;2023-02-28T14:27:13;7.60;;;6.40;;
7843;SDS011;3967;48.702;9.326;2023-02-28T14:32:27;11.00;;;7.87;;
7843;SDS011;3967;48.702;9.326;2023-02-28T14:35:19;7.37;;;6.57;;
7843;SDS011;3967;48.702;9.326;2023-02-28T14:38:18;7.93;;;7.13;;
7843;SDS011;3967;48.702;9.326;2023-02-28T14:40:51;9.10;;;6.63;;
7843;SDS011;3967;48.702;9.326;2023-02-28T14:43:24;9.57;;;6.87;;
7843;SDS011;3967;48.702;9.326;2023-02-28T14:45:54;8.77;;;6.90;;
7843;SDS011;3967;48.702;9.326;2023-02-28T14:48:23;7.43;;;6.67;;
7843;SDS011;3967;48.702;9.326;2023-02-28T14:50:53;10.43;;;7.90;;
7843;SDS011;3967;48.702;9.326;2023-02-28T14:53:28;8.57;;;6.90;;
7843;SDS011;3967;48.702;9.326;2023-02-28T14:56:01;9.10;;;6.47;;
7843;SDS011;3967;48.702;9.326;2023-02-28T14:58:31;9.47;;;6.30;;
7843;SDS011;3967;48.702;9.326;2023-02-28T15:01:00;9.07;;;6.87;;
7843;SDS011;3967;48.702;9.326;2023-02-28T15:05:59;7.67;;;6.40;;
7843;SDS011;3967;48.702;9.326;2023-02-28T15:08:28;8.30;;;6.27;;
7843;SDS011;3967;48.702;9.326;2023-02-28T15:13:31;8.27;;;6.80;;
7843;SDS011;3967;48.702;9.326;2023-02-28T15:16:01;8.27;;;6.67;;
7843;SDS011;3967;48.702;9.326;2023-02-28T15:21:07;10.13;;;6.93;;
7843;SDS011;3967;48.702;9.326;2023-02-28T15:23:40;7.47;;;6.67;;
7843;SDS011;3967;48.702;9.326;2023-02-28T15:26:19;9.33;;;6.93;;
7843;SDS011;3967;48.702;9.326;2023-02-28T15:28:50;14.63;;;6.93;;
7843;SDS011;3967;48.702;9.326;2023-02-28T15:31:27;9.90;;;7.17;;
7843;SDS011;3967;48.702;9.326;2023-02-28T15:34:33;8.27;;;7.07;;
7843;SDS011;3967;48.702;9.326;2023-02-28T15:43:23;9.90;;;6.70;;
7843;SDS011;3967;48.702;9.326;2023-02-28T15:45:53;8.40;;;6.47;;
7843;SDS011;3967;48.702;9.326;2023-02-28T15:48:38;9.77;;;7.67;;
7843;SDS011;3967;48.702;9.326;2023-02-28T15:51:17;11.33;;;7.73;;
7843;SDS011;3967;48.702;9.326;2023-02-28T15:53:59;9.23;;;6.63;;
7843;SDS011;3967;48.702;9.326;2023-02-28T15:56:28;8.63;;;6.93;;
7843;SDS011;3967;48.702;9.326;2023-02-28T15:59:01;9.70;;;7.40;;
7843;SDS011;3967;48.702;9.326;2023-02-28T16:01:32;11.07;;;7.23;;
7843;SDS011;3967;48.702;9.326;2023-02-28T16:04:02;7.00;;;6.30;;
7843;SDS011;3967;48.702;9.326;2023-02-28T16:09:26;9.87;;;6.87;;
7843;SDS011;3967;48.702;9.326;2023-02-28T16:11:55;9.27;;;6.63;;
7843;SDS011;3967;48.702;9.326;2023-02-28T16:14:25;10.37;;;7.40;;
7843;SDS011;3967;48.702;9.326;2023-02-28T16:16:55;7.93;;;6.73;;
7843;SDS011;3967;48.702;9.326;2023-02-28T16:19:23;8.03;;;7.10;;
7843;SDS011;3967;48.702;9.326;2023-02-28T16:21:50;8.83;;;7.43;;
7843;SDS011;3967;48.702;9.326;2023-02-28T16:24:17;9.03;;;7.20;;
7843;SDS011;3967;48.702;9.326;2023-02-28T16:26:47;7.57;;;6.63;;
7843;SDS011;3967;48.702;9.326;2023-02-28T16:29:27;8.17;;;7.10;;
7843;SDS011;3967;48.702;9.326;2023-02-28T16:31:58;7.20;;;6.50;;
7843;SDS011;3967;48.702;9.326;2023-02-28T16:34:26;7.97;;;6.53;;
7843;SDS011;3967;48.702;9.326;2023-02-28T16:36:53;7.70;;;6.80;;
7843;SDS011;3967;48.702;9.326;2023-02-28T16:39:20;9.53;;;7.40;;
7843;SDS011;3967;48.702;9.326;2023-02-28T16:41:47;9.77;;;6.93;;
7843;SDS011;3967;48.702;9.326;2023-02-28T16:44:36;8.80;;;7.27;;
7843;SDS011;3967;48.702;9.326;2023-02-28T16:47:03;9.40;;;8.23;;
7843;SDS011;3967;48.702;9.326;2023-02-28T16:49:30;9.67;;;7.80;;
7843;SDS011;3967;48.702;9.326;2023-02-28T16:51:57;9.07;;;7.67;;
7843;SDS011;3967;48.702;9.326;2023-02-28T16:54:24;10.67;;;7.43;;
7843;SDS011;3967;48.702;9.326;2023-02-28T16:56:51;9.73;;;7.50;;
7843;SDS011;3967;48.702;9.326;2023-02-28T16:59:19;11.07;;;7.73;;
7843;SDS011;3967;48.702;9.326;2023-02-28T17:01:50;8.90;;;7.77;;
7843;SDS011;3967;48.702;9.326;2023-02-28T17:04:18;9.47;;;7.13;;
7843;SDS011;3967;48.702;9.326;2023-02-28T17:06:45;9.93;;;7.23;;
7843;SDS011;3967;48.702;9.326;2023-02-28T17:09:18;11.13;;;8.10;;
7843;SDS011;3967;48.702;9.326;2023-02-28T17:11:55;11.67;;;8.03;;
7843;SDS011;3967;48.702;9.326;2023-02-28T17:14:23;11.40;;;7.60;;
7843;SDS011;3967;48.702;9.326;2023-02-28T17:16:50;8.27;;;7.13;;
7843;SDS011;3967;48.702;9.326;2023-02-28T17:19:17;10.13;;;7.70;;
7843;SDS011;3967;48.702;9.326;2023-02-28T17:21:44;13.50;;;7.87;;
7843;SDS011;3967;48.702;9.326;2023-02-28T17:24:11;8.87;;;7.63;;
7843;SDS011;3967;48.702;9.326;2023-02-28T17:26:44;9.67;;;8.10;;
7843;SDS011;3967;48.702;9.326;2023-02-28T17:29:18;10.40;;;8.73;;
7843;SDS011;3967;48.702;9.326;2023-02-28T17:31:46;12.73;;;9.43;;
7843;SDS011;3967;48.702;9.326;2023-02-28T17:34:13;9.50;;;7.87;;
7843;SDS011;3967;48.702;9.326;2023-02-28T17:36:47;12.23;;;8.70;;
7843;SDS011;3967;48.702;9.326;2023-02-28T17:39:16;11.33;;;8.47;;
7843;SDS011;3967;48.702;9.326;2023-02-28T17:41:51;11.20;;;8.90;;
7843;SDS011;3967;48.702;9.326;2023-02-28T17:44:18;11.77;;;9.00;;
7843;SDS011;3967;48.702;9.326;2023-02-28T17:46:47;14.93;;;9.40;;
7843;SDS011;3967;48.702;9.326;2023-02-28T17:49:16;10.00;;;8.37;;
7843;SDS011;3967;48.702;9.326;2023-02-28T17:51:43;14.73;;;9.40;;
7843;SDS011;3967;48.702;9.326;2023-02-28T17:54:10;10.40;;;8.93;;
7843;SDS011;3967;48.702;9.326;2023-02-28T17:56:37;11.93;;;8.87;;
7843;SDS011;3967;48.702;9.326;2023-02-28T17:59:04;11.53;;;8.70;;
7843;SDS011;3967;48.702;9.326;2023-02-28T18:01:31;11.90;;;10.17;;
7843;SDS011;3967;48.702;9.326;2023-02-28T18:03:58;11.73;;;9.60;;
7843;SDS011;3967;48.702;9.326;2023-02-28T18:08:54;11.63;;;9.00;;
7843;SDS011;3967;48.702;9.326;2023-02-28T18:11:21;11.00;;;9.33;;
7843;SDS011;3967;48.702;9.326;2023-02-28T18:13:50;9.80;;;8.63;;
7843;SDS011;3967;48.702;9.326;2023-02-28T18:16:19;14.43;;;10.00;;
7843;SDS011;3967;48.702;9.326;2023-02-28T18:18:47;9.43;;;8.10;;
7843;SDS011;3967;48.702;9.326;2023-02-28T18:21:15;12.13;;;8.63;;
7843;SDS011;3967;48.702;9.326;2023-02-28T18:23:42;11.57;;;8.73;;
7843;SDS011;3967;48.702;9.326;2023-02-28T18:26:17;8.97;;;6.83;;
7843;SDS011;3967;48.702;9.326;2023-02-28T18:28:45;9.63;;;7.43;;